createdAt,value
2023-02-06T00:01:55.877Z,97878.67
2023-02-06T00:04:25.681Z,97881.27
2023-02-06T00:06:55.074Z,97883.66
2023-02-06T00:09:24.646Z,97880.95
2023-02-06T00:11:54.502Z,97876.48
2023-02-06T00:14:24.221Z,97869.09
2023-02-06T00:16:53.866Z,97871.30
2023-02-06T00:19:23.360Z,97873.69
2023-02-06T00:21:52.165Z,97874.38
2023-02-06T00:24:21.632Z,97876.88
2023-02-06T00:26:51.302Z,97879.01
2023-02-06T00:29:21.036Z,97875.53
2023-02-06T00:31:50.788Z,97875.27
2023-02-06T00:34:20.363Z,97875.48
2023-02-06T00:36:52.473Z,97875.53
2023-02-06T00:39:21.306Z,97872.20
2023-02-06T00:41:51.026Z,97869.09
2023-02-06T00:44:22.241Z,97866.62
2023-02-06T00:46:52.568Z,97869.17
2023-02-06T00:49:22.216Z,97875.02
2023-02-06T00:51:53.521Z,97874.75
2023-02-06T00:54:23.204Z,97880.20
2023-02-06T00:56:52.836Z,97875.80
2023-02-06T00:59:22.469Z,97874.23
2023-02-06T01:01:53.922Z,97877.52
2023-02-06T01:04:23.608Z,97872.06
2023-02-06T01:06:53.097Z,97865.70
2023-02-06T01:09:22.590Z,97869.29
2023-02-06T01:11:52.308Z,97871.52
2023-02-06T01:14:22.068Z,97873.04
2023-02-06T01:16:51.520Z,97871.91
2023-02-06T01:19:20.169Z,97877.19
2023-02-06T01:21:52.387Z,97878.06
2023-02-06T01:24:21.876Z,97880.61
2023-02-06T01:26:51.383Z,97888.91
2023-02-06T01:29:21.028Z,97887.80
2023-02-06T01:31:50.579Z,97890.90
2023-02-06T01:34:20.611Z,97893.48
2023-02-06T01:36:50.306Z,97900.77
2023-02-06T01:39:19.789Z,97905.67
2023-02-06T01:41:51.498Z,97904.47
2023-02-06T01:44:22.998Z,97902.38
2023-02-06T01:46:53.952Z,97906.93
2023-02-06T01:49:26.478Z,97909.64
2023-02-06T01:52:01.847Z,97907.52
2023-02-06T01:54:31.995Z,97912.52
2023-02-06T01:57:05.017Z,97901.50
2023-02-06T01:59:36.245Z,97903.13
2023-02-06T02:02:06.345Z,97900.46
2023-02-06T02:04:37.220Z,97911.54
2023-02-06T02:07:16.063Z,97912.14
2023-02-06T02:09:45.588Z,97913.77
2023-02-06T02:12:15.754Z,97907.93
2023-02-06T02:14:46.466Z,97909.14
2023-02-06T02:17:26.605Z,97903.90
2023-02-06T02:20:14.588Z,97904.11
2023-02-06T02:22:56.635Z,97901.11
2023-02-06T02:25:44.286Z,97899.35
2023-02-06T02:28:20.269Z,97903.06
2023-02-06T02:31:13.260Z,97906.23
2023-02-06T02:33:42.946Z,97907.52
2023-02-06T02:36:31.444Z,97908.61
2023-02-06T02:39:08.891Z,97911.96
2023-02-06T02:41:46.476Z,97913.86
2023-02-06T02:44:34.861Z,97920.89
2023-02-06T02:47:07.681Z,97921.68
2023-02-06T02:49:38.891Z,97923.49
2023-02-06T02:52:10.652Z,97926.90
2023-02-06T02:54:40.212Z,97925.60
2023-02-06T02:57:16.162Z,97929.45
2023-02-06T02:59:46.826Z,97930.09
2023-02-06T03:02:22.113Z,97927.70
2023-02-06T03:04:58.400Z,97932.09
2023-02-06T03:07:33.907Z,97934.20
2023-02-06T03:10:15.731Z,97941.54
2023-02-06T03:12:54.937Z,97941.83
2023-02-06T03:15:31.257Z,97942.39
2023-02-06T03:18:07.918Z,97941.61
2023-02-06T03:20:39.102Z,97943.56
2023-02-06T03:23:08.756Z,97940.56
2023-02-06T03:25:41.891Z,97936.06
2023-02-06T03:28:18.748Z,97935.04
2023-02-06T03:30:51.575Z,97937.65
2023-02-06T03:33:23.282Z,97939.50
2023-02-06T03:35:53.474Z,97943.19
2023-02-06T03:38:25.257Z,97947.74
2023-02-06T03:40:55.530Z,97948.33
2023-02-06T03:43:27.968Z,97950.73
2023-02-06T03:46:00.902Z,97943.69
2023-02-06T03:48:32.668Z,97939.06
2023-02-06T03:51:03.964Z,97941.06
2023-02-06T03:53:35.354Z,97938.02
2023-02-06T03:56:15.317Z,97934.95
2023-02-06T03:58:45.130Z,97931.35
2023-02-06T04:01:15.366Z,97936.50
2023-02-06T04:03:45.198Z,97936.73
2023-02-06T04:06:16.937Z,97937.02
2023-02-06T04:08:47.000Z,97940.42
2023-02-06T04:11:18.673Z,97943.59
2023-02-06T04:13:48.695Z,97941.49
2023-02-06T04:16:18.171Z,97941.23
2023-02-06T04:18:48.035Z,97937.73
2023-02-06T04:21:18.270Z,97937.52
2023-02-06T04:23:47.902Z,97937.83
2023-02-06T04:26:17.355Z,97943.17
2023-02-06T04:28:47.200Z,97939.61
2023-02-06T04:31:17.120Z,97936.16
2023-02-06T04:33:45.850Z,97938.59
2023-02-06T04:36:16.409Z,97938.20
2023-02-06T04:38:45.554Z,97941.18
2023-02-06T04:41:15.334Z,97937.45
2023-02-06T04:43:45.758Z,97938.27
2023-02-06T04:46:15.587Z,97941.83
2023-02-06T04:48:45.474Z,97938.70
2023-02-06T04:51:15.326Z,97941.30
2023-02-06T04:53:47.031Z,97941.85
2023-02-06T04:56:17.082Z,97943.51
2023-02-06T04:58:46.559Z,97938.13
2023-02-06T05:01:17.537Z,97940.90
2023-02-06T05:03:47.936Z,97939.58
2023-02-06T05:06:18.107Z,97942.28
2023-02-06T05:08:47.955Z,97945.12
2023-02-06T05:11:17.924Z,97951.06
2023-02-06T05:13:47.650Z,97952.77
2023-02-06T05:16:18.179Z,97954.07
2023-02-06T05:18:48.304Z,97948.52
2023-02-06T05:21:17.875Z,97945.84
2023-02-06T05:23:47.704Z,97945.80
2023-02-06T05:26:17.352Z,97948.64
2023-02-06T05:28:47.246Z,97947.86
2023-02-06T05:31:20.405Z,97949.77
2023-02-06T05:33:55.712Z,97953.14
2023-02-06T05:36:25.464Z,97950.49
2023-02-06T05:38:55.495Z,97954.77
2023-02-06T05:41:24.835Z,97948.02
2023-02-06T05:43:53.751Z,97949.48
2023-02-06T05:46:22.669Z,97948.38
2023-02-06T05:48:54.223Z,97945.30
2023-02-06T05:51:23.719Z,97944.83
2023-02-06T05:53:53.506Z,97951.23
2023-02-06T05:56:23.576Z,97946.56
2023-02-06T05:58:53.652Z,97947.82
2023-02-06T06:01:22.398Z,97943.29
2023-02-06T06:03:52.623Z,97943.05
2023-02-06T06:06:22.141Z,97943.13
2023-02-06T06:08:52.176Z,97946.80
2023-02-06T06:11:21.936Z,97947.73
2023-02-06T06:13:51.777Z,97948.13
2023-02-06T06:16:21.964Z,97947.41
2023-02-06T06:18:51.938Z,97942.84
2023-02-06T06:21:22.448Z,97947.50
2023-02-06T06:23:52.357Z,97948.31
2023-02-06T06:26:22.051Z,97958.21
2023-02-06T06:28:51.849Z,97956.84
2023-02-06T06:31:21.662Z,97959.16
2023-02-06T06:33:51.186Z,97957.81
2023-02-06T06:36:20.634Z,97961.38
2023-02-06T06:38:50.643Z,97958.48
2023-02-06T06:41:20.513Z,97955.55
2023-02-06T06:43:51.518Z,97954.52
2023-02-06T06:46:21.302Z,97949.34
2023-02-06T06:48:50.754Z,97947.52
2023-02-06T06:51:21.462Z,97950.50
2023-02-06T06:53:50.238Z,97952.77
2023-02-06T06:56:20.401Z,97949.75
2023-02-06T06:58:52.206Z,97950.77
2023-02-06T07:01:22.059Z,97953.00
2023-02-06T07:03:50.814Z,97955.45
2023-02-06T07:06:21.095Z,97955.39
2023-02-06T07:08:50.967Z,97955.99
2023-02-06T07:11:20.970Z,97953.52
2023-02-06T07:13:50.758Z,97958.84
2023-02-06T07:16:20.677Z,97960.78
2023-02-06T07:18:50.538Z,97966.92
2023-02-06T07:21:20.511Z,97967.50
2023-02-06T07:23:50.378Z,97969.29
2023-02-06T07:26:19.821Z,97968.46
2023-02-06T07:28:50.460Z,97971.13
2023-02-06T07:31:20.291Z,97970.95
2023-02-06T07:33:50.640Z,97972.67
2023-02-06T07:36:19.548Z,97973.84
2023-02-06T07:38:49.391Z,97978.87
2023-02-06T07:41:19.336Z,97980.30
2023-02-06T07:43:49.432Z,97979.30
2023-02-06T07:46:19.209Z,97980.25
2023-02-06T07:48:48.594Z,97976.48
2023-02-06T07:51:18.448Z,97973.50
2023-02-06T07:53:49.101Z,97971.86
2023-02-06T07:56:18.917Z,97974.01
2023-02-06T07:58:52.880Z,97973.54
2023-02-06T08:01:23.056Z,97973.31
2023-02-06T08:03:53.465Z,97971.98
2023-02-06T08:06:25.369Z,97966.83
2023-02-06T08:08:58.481Z,97962.24
2023-02-06T08:11:30.709Z,97964.36
2023-02-06T08:14:01.433Z,97958.38
2023-02-06T08:16:30.121Z,97961.17
2023-02-06T08:19:01.912Z,97964.05
2023-02-06T08:21:31.443Z,97962.79
2023-02-06T08:24:01.288Z,97968.89
2023-02-06T08:26:32.906Z,97971.16
2023-02-06T08:29:04.263Z,97968.59
2023-02-06T08:31:36.004Z,97968.92
2023-02-06T08:34:07.224Z,97973.23
2023-02-06T08:36:37.164Z,97969.92
2023-02-06T08:39:07.139Z,97969.80
2023-02-06T08:41:38.183Z,97967.46
2023-02-06T08:44:12.250Z,97972.19
2023-02-06T08:46:43.368Z,97973.46
2023-02-06T08:49:15.795Z,97969.31
2023-02-06T08:51:45.884Z,97963.21
2023-02-06T08:54:16.987Z,97975.52
2023-02-06T08:56:47.126Z,97983.23
2023-02-06T08:59:17.995Z,97984.27
2023-02-06T09:01:49.794Z,97984.42
2023-02-06T09:04:20.002Z,97984.90
2023-02-06T09:06:49.725Z,97985.91
2023-02-06T09:09:19.732Z,97990.59
2023-02-06T09:11:49.349Z,97990.27
2023-02-06T09:14:19.008Z,97990.28
2023-02-06T09:16:48.503Z,97986.81
2023-02-06T09:19:18.068Z,97982.01
2023-02-06T09:21:47.489Z,97979.88
2023-02-06T09:24:17.200Z,97978.61
2023-02-06T09:27:04.020Z,97971.48
2023-02-06T09:29:34.605Z,97977.96
2023-02-06T09:32:04.308Z,97974.33
2023-02-06T09:34:34.136Z,97964.50
2023-02-06T09:37:04.947Z,97965.89
2023-02-06T09:39:34.902Z,97968.64
2023-02-06T09:42:08.593Z,97970.23
2023-02-06T09:44:58.842Z,97970.37
2023-02-06T09:47:34.050Z,97968.45
2023-02-06T09:50:11.487Z,97974.39
2023-02-06T09:52:52.730Z,97969.05
2023-02-06T09:55:41.162Z,97968.20
2023-02-06T09:58:20.140Z,97965.93
2023-02-06T10:00:52.788Z,97957.87
2023-02-06T10:03:37.024Z,97958.28
2023-02-06T10:06:22.270Z,97954.73
2023-02-06T10:08:53.636Z,97955.23
2023-02-06T10:11:45.660Z,97952.62
2023-02-06T10:14:36.976Z,97954.48
2023-02-06T10:17:16.468Z,97955.61
2023-02-06T10:20:01.804Z,97953.33
2023-02-06T10:22:37.735Z,97952.41
2023-02-06T10:25:24.851Z,97947.77
2023-02-06T10:27:59.137Z,97949.05
2023-02-06T10:30:49.720Z,97946.00
2023-02-06T10:33:49.260Z,97943.38
2023-02-06T10:36:36.564Z,97933.26
2023-02-06T10:39:18.514Z,97931.65
2023-02-06T10:42:06.614Z,97933.67
2023-02-06T10:44:51.294Z,97929.98
2023-02-06T10:47:38.393Z,97935.54
2023-02-06T10:50:16.712Z,97935.59
2023-02-06T10:52:47.994Z,97930.45
2023-02-06T10:55:40.385Z,97929.27
2023-02-06T10:58:15.669Z,97928.92
2023-02-06T11:00:47.377Z,97926.44
2023-02-06T11:03:19.831Z,97927.18
2023-02-06T11:05:50.536Z,97924.45
2023-02-06T11:08:23.732Z,97923.58
2023-02-06T11:10:54.120Z,97925.24
2023-02-06T11:13:28.623Z,97928.35
2023-02-06T11:16:06.573Z,97932.45
2023-02-06T11:18:39.663Z,97935.59
2023-02-06T11:21:10.150Z,97942.67
2023-02-06T11:23:40.125Z,97938.89
2023-02-06T11:26:17.550Z,97937.42
2023-02-06T11:28:59.432Z,97937.07
2023-02-06T11:31:39.657Z,97935.33
2023-02-06T11:34:24.133Z,97933.79
2023-02-06T11:37:01.476Z,97931.03
2023-02-06T11:39:32.878Z,97931.82
2023-02-06T11:42:04.814Z,97928.95
2023-02-06T11:44:45.327Z,97925.12
2023-02-06T11:47:20.796Z,97920.85
2023-02-06T11:49:50.847Z,97918.54
2023-02-06T11:52:31.146Z,97921.01
2023-02-06T11:55:04.046Z,97923.69
2023-02-06T11:57:36.601Z,97921.77
2023-02-06T12:00:21.300Z,97917.91
2023-02-06T12:02:52.393Z,97915.08
2023-02-06T12:05:27.172Z,97913.27
2023-02-06T12:08:05.504Z,97911.08
2023-02-06T12:10:39.053Z,97909.23
2023-02-06T12:13:14.877Z,97906.48
2023-02-06T12:15:48.103Z,97907.70
2023-02-06T12:18:22.956Z,97908.06
2023-02-06T12:21:02.755Z,97907.27
2023-02-06T12:23:38.773Z,97901.91
2023-02-06T12:26:12.431Z,97904.16
2023-02-06T12:28:57.766Z,97900.70
2023-02-06T12:31:40.685Z,97900.53
2023-02-06T12:34:32.218Z,97896.23
2023-02-06T12:37:14.928Z,97895.88
2023-02-06T12:39:45.991Z,97897.15
2023-02-06T12:42:34.230Z,97901.50
2023-02-06T12:45:12.842Z,97901.10
2023-02-06T12:47:55.127Z,97896.36
2023-02-06T12:50:27.362Z,97891.54
2023-02-06T12:53:15.373Z,97892.05
2023-02-06T12:56:06.504Z,97899.52
2023-02-06T12:58:43.831Z,97895.39
2023-02-06T13:01:30.120Z,97896.45
2023-02-06T13:04:25.979Z,97897.21
2023-02-06T13:07:05.637Z,97898.67
2023-02-06T13:09:41.683Z,97901.21
2023-02-06T13:12:16.162Z,97901.45
2023-02-06T13:14:48.416Z,97906.92
2023-02-06T13:17:25.708Z,97904.89
2023-02-06T13:20:07.430Z,97909.02
2023-02-06T13:22:46.988Z,97904.40
2023-02-06T13:25:25.431Z,97909.39
2023-02-06T13:27:55.717Z,97907.52
2023-02-06T13:30:33.557Z,97911.96
2023-02-06T13:33:15.666Z,97913.27
2023-02-06T13:35:57.146Z,97915.64
2023-02-06T13:38:28.924Z,97909.42
2023-02-06T13:41:17.000Z,97913.84
2023-02-06T13:43:49.846Z,97918.95
2023-02-06T13:46:22.430Z,97918.30
2023-02-06T13:49:11.519Z,97921.05
2023-02-06T13:51:46.750Z,97921.86
2023-02-06T13:54:30.898Z,97922.54
2023-02-06T13:57:18.979Z,97925.07
2023-02-06T14:00:02.134Z,97926.02
2023-02-06T14:02:36.999Z,97924.47
2023-02-06T14:05:11.052Z,97927.85
2023-02-06T14:07:55.851Z,97928.02
2023-02-06T14:10:25.361Z,97932.48
2023-02-06T14:12:57.955Z,97934.05
2023-02-06T14:15:47.919Z,97930.97
2023-02-06T14:18:16.756Z,97931.80
2023-02-06T14:20:50.343Z,97931.92
2023-02-06T14:23:45.245Z,97928.67
2023-02-06T14:26:23.667Z,97928.42
2023-02-06T14:29:12.307Z,97927.84
2023-02-06T14:32:00.778Z,97934.50
2023-02-06T14:34:50.621Z,97934.47
2023-02-06T14:37:38.809Z,97934.40
2023-02-06T14:40:19.213Z,97926.39
2023-02-06T14:42:49.529Z,97926.77
2023-02-06T14:45:21.820Z,97929.61
2023-02-06T14:47:54.177Z,97929.37
2023-02-06T14:50:25.807Z,97930.55
2023-02-06T14:52:57.162Z,97933.64
2023-02-06T14:55:40.404Z,97936.60
2023-02-06T14:58:30.122Z,97941.06
2023-02-06T15:01:21.069Z,97950.80
2023-02-06T15:03:53.209Z,97956.14
2023-02-06T15:06:35.597Z,97957.36
2023-02-06T15:09:05.696Z,97958.34
2023-02-06T15:11:36.112Z,97964.88
2023-02-06T15:14:19.996Z,97965.58
2023-02-06T15:16:50.898Z,97965.92
2023-02-06T15:19:23.661Z,97966.20
2023-02-06T15:22:16.626Z,97972.15
2023-02-06T15:24:49.150Z,97972.40
2023-02-06T15:27:25.181Z,97976.13
2023-02-06T15:29:55.812Z,97981.52
2023-02-06T15:32:30.189Z,97978.76
2023-02-06T15:35:00.412Z,97980.48
2023-02-06T15:37:35.456Z,97985.48
2023-02-06T15:40:09.907Z,97983.83
2023-02-06T15:42:39.480Z,97987.21
2023-02-06T15:45:16.630Z,97991.55
2023-02-06T15:47:46.570Z,97995.39
2023-02-06T15:50:24.437Z,97998.25
2023-02-06T15:52:55.290Z,97994.55
2023-02-06T15:55:29.355Z,97999.48
2023-02-06T15:57:59.597Z,98008.32
2023-02-06T16:00:35.888Z,98010.02
2023-02-06T16:03:08.321Z,98010.66
2023-02-06T16:05:42.751Z,98014.23
2023-02-06T16:08:21.613Z,98020.58
2023-02-06T16:10:54.407Z,98022.83
2023-02-06T16:13:28.932Z,98022.83
2023-02-06T16:16:03.666Z,98027.66
2023-02-06T16:18:36.378Z,98031.67
2023-02-06T16:21:23.125Z,98037.70
2023-02-06T16:23:53.134Z,98040.32
2023-02-06T16:26:25.161Z,98036.27
2023-02-06T16:29:06.195Z,98041.02
2023-02-06T16:31:38.054Z,98047.96
2023-02-06T16:34:21.166Z,98047.40
2023-02-06T16:36:50.612Z,98051.07
2023-02-06T16:39:22.005Z,98052.05
2023-02-06T16:41:54.423Z,98057.08
2023-02-06T16:44:42.958Z,98058.10
2023-02-06T16:47:20.099Z,98065.34
2023-02-06T16:49:50.232Z,98067.89
2023-02-06T16:52:24.479Z,98068.75
2023-02-06T16:54:59.328Z,98071.80
2023-02-06T16:57:33.520Z,98074.27
2023-02-06T17:00:06.018Z,98075.25
2023-02-06T17:02:34.841Z,98078.31
2023-02-06T17:05:05.570Z,98078.84
2023-02-06T17:07:35.698Z,98084.55
2023-02-06T17:10:06.397Z,98082.73
2023-02-06T17:12:36.426Z,98084.31
2023-02-06T17:15:07.275Z,98086.45
2023-02-06T17:17:37.504Z,98086.23
2023-02-06T17:20:08.798Z,98088.67
2023-02-06T17:22:38.774Z,98086.30
2023-02-06T17:25:08.701Z,98088.69
2023-02-06T17:27:38.792Z,98088.69
2023-02-06T17:30:17.675Z,98088.02
2023-02-06T17:32:49.633Z,98081.23
2023-02-06T17:35:20.161Z,98083.65
2023-02-06T17:37:52.586Z,98088.61
2023-02-06T17:40:24.785Z,98092.28
2023-02-06T17:42:55.375Z,98090.39
2023-02-06T17:45:25.277Z,98087.50
2023-02-06T17:47:55.326Z,98090.30
2023-02-06T17:50:25.963Z,98092.67
2023-02-06T17:52:56.153Z,98094.08
2023-02-06T17:55:26.803Z,98095.27
2023-02-06T17:57:56.507Z,98089.81
2023-02-06T18:00:26.528Z,98096.14
2023-02-06T18:02:56.731Z,98095.32
2023-02-06T18:05:25.766Z,98093.41
2023-02-06T18:07:55.997Z,98097.38
2023-02-06T18:10:26.206Z,98100.14
2023-02-06T18:12:55.730Z,98107.54
2023-02-06T18:15:27.206Z,98108.91
2023-02-06T18:17:56.753Z,98112.25
2023-02-06T18:20:26.296Z,98112.41
2023-02-06T18:22:56.039Z,98109.61
2023-02-06T18:25:25.671Z,98110.19
2023-02-06T18:27:55.176Z,98108.98
2023-02-06T18:30:24.843Z,98114.06
2023-02-06T18:32:54.425Z,98113.46
2023-02-06T18:35:23.817Z,98114.59
2023-02-06T18:37:53.803Z,98121.30
2023-02-06T18:40:23.302Z,98125.58
2023-02-06T18:42:54.474Z,98125.33
2023-02-06T18:45:25.410Z,98117.57
2023-02-06T18:47:56.077Z,98117.63
2023-02-06T18:50:25.707Z,98115.53
2023-02-06T18:52:55.522Z,98111.95
2023-02-06T18:55:25.520Z,98109.20
2023-02-06T18:57:54.984Z,98106.20
2023-02-06T19:00:24.679Z,98105.44
2023-02-06T19:02:54.580Z,98101.63
2023-02-06T19:05:24.229Z,98100.23
2023-02-06T19:07:54.033Z,98094.40
2023-02-06T19:10:23.542Z,98098.02
2023-02-06T19:12:52.974Z,98109.16
2023-02-06T19:15:22.716Z,98101.88
2023-02-06T19:17:52.210Z,98108.16
2023-02-06T19:20:21.875Z,98117.34
2023-02-06T19:22:52.970Z,98121.20
2023-02-06T19:25:22.849Z,98127.45
2023-02-06T19:27:52.382Z,98125.08
2023-02-06T19:30:21.948Z,98124.17
2023-02-06T19:32:52.091Z,98125.16
2023-02-06T19:35:21.601Z,98123.46
2023-02-06T19:37:52.322Z,98124.38
2023-02-06T19:40:22.030Z,98123.76
2023-02-06T19:42:50.784Z,98120.40
2023-02-06T19:45:20.548Z,98122.14
2023-02-06T19:47:50.034Z,98118.48
2023-02-06T19:50:19.642Z,98118.91
2023-02-06T19:52:49.887Z,98119.18
2023-02-06T19:55:19.799Z,98124.90
2023-02-06T19:57:49.483Z,98125.88
2023-02-06T20:00:19.108Z,98128.55
2023-02-06T20:02:48.914Z,98131.39
2023-02-06T20:05:27.256Z,98133.88
2023-02-06T20:07:56.708Z,98133.84
2023-02-06T20:10:25.680Z,98137.67
2023-02-06T20:12:55.296Z,98135.38
2023-02-06T20:15:25.158Z,98141.54
2023-02-06T20:17:54.494Z,98150.45
2023-02-06T20:20:24.313Z,98153.93
2023-02-06T20:22:54.045Z,98156.80
2023-02-06T20:25:24.557Z,98162.14
2023-02-06T20:27:54.062Z,98165.08
2023-02-06T20:30:24.769Z,98165.95
2023-02-06T20:32:54.206Z,98163.56
2023-02-06T20:35:23.721Z,98169.54
2023-02-06T20:37:55.162Z,98166.13
2023-02-06T20:40:23.942Z,98171.02
2023-02-06T20:42:55.142Z,98169.17
2023-02-06T20:45:24.689Z,98168.44
2023-02-06T20:47:53.517Z,98169.06
2023-02-06T20:50:23.158Z,98171.14
2023-02-06T20:52:52.774Z,98171.83
2023-02-06T20:55:22.593Z,98172.25
2023-02-06T20:57:52.168Z,98176.13
2023-02-06T21:00:21.803Z,98185.20
2023-02-06T21:02:52.949Z,98191.00
2023-02-06T21:05:22.920Z,98193.20
2023-02-06T21:07:54.877Z,98194.46
2023-02-06T21:10:25.608Z,98194.13
2023-02-06T21:12:55.109Z,98198.30
2023-02-06T21:15:24.544Z,98196.64
2023-02-06T21:17:54.062Z,98203.56
2023-02-06T21:20:23.445Z,98196.00
2023-02-06T21:22:53.225Z,98194.00
2023-02-06T21:25:22.879Z,98187.20
2023-02-06T21:27:52.391Z,98185.32
2023-02-06T21:30:21.916Z,98186.23
2023-02-06T21:32:51.764Z,98180.14
2023-02-06T21:35:21.174Z,98176.16
2023-02-06T21:37:49.897Z,98178.09
2023-02-06T21:40:21.792Z,98181.36
2023-02-06T21:42:51.233Z,98178.11
2023-02-06T21:45:20.799Z,98187.59
2023-02-06T21:47:50.886Z,98182.61
2023-02-06T21:50:20.587Z,98184.31
2023-02-06T21:52:50.371Z,98191.72
2023-02-06T21:55:19.241Z,98196.74
2023-02-06T21:57:49.530Z,98197.14
2023-02-06T22:00:19.354Z,98196.86
2023-02-06T22:02:49.224Z,98198.98
2023-02-06T22:05:19.202Z,98203.48
2023-02-06T22:07:49.065Z,98204.33
2023-02-06T22:10:18.671Z,98204.27
2023-02-06T22:12:51.047Z,98202.77
2023-02-06T22:15:20.426Z,98209.70
2023-02-06T22:17:50.449Z,98211.16
2023-02-06T22:20:20.007Z,98212.43
2023-02-06T22:22:49.973Z,98207.23
2023-02-06T22:25:18.959Z,98211.54
2023-02-06T22:27:48.942Z,98216.52
2023-02-06T22:30:18.562Z,98218.84
2023-02-06T22:32:48.407Z,98219.90
2023-02-06T22:35:22.796Z,98219.05
2023-02-06T22:37:54.496Z,98213.14
2023-02-06T22:40:23.988Z,98216.08
2023-02-06T22:42:53.763Z,98218.73
2023-02-06T22:45:23.357Z,98222.15
2023-02-06T22:47:52.865Z,98222.96
2023-02-06T22:50:21.575Z,98222.64
2023-02-06T22:53:11.528Z,98219.63
2023-02-06T22:56:01.186Z,98216.41
2023-02-06T22:58:30.678Z,98211.16
2023-02-06T23:01:04.017Z,98209.86
2023-02-06T23:03:33.780Z,98210.29
2023-02-06T23:06:07.520Z,98209.64
2023-02-06T23:08:40.150Z,98213.73
2023-02-06T23:11:10.128Z,98222.54
2023-02-06T23:13:40.339Z,98223.85
2023-02-06T23:16:10.335Z,98224.69
2023-02-06T23:18:40.569Z,98223.89
2023-02-06T23:21:12.481Z,98225.86
2023-02-06T23:23:42.680Z,98225.94
2023-02-06T23:26:13.430Z,98221.77
2023-02-06T23:28:43.752Z,98212.30
2023-02-06T23:31:13.713Z,98214.54
2023-02-06T23:33:43.778Z,98213.01
2023-02-06T23:36:15.536Z,98212.54
2023-02-06T23:38:44.875Z,98212.87
2023-02-06T23:41:19.853Z,98214.34
2023-02-06T23:43:53.690Z,98215.23
2023-02-06T23:46:23.600Z,98212.77
2023-02-06T23:48:53.933Z,98207.08
2023-02-06T23:51:24.443Z,98202.80
2023-02-06T23:53:53.400Z,98201.71
2023-02-06T23:56:27.470Z,98202.84
2023-02-06T23:58:57.896Z,98204.16
